Hovedside
METAR-TAF:

METAR-TAF

Lufthavner :

Kemi-Torneå lufthavn

Kemi, Finland

breddegrad: 65-47N, lengdegrad: 024-35E, høyde over havet: 15 m

Gjeldene værobservasjon

Denne rapporten ble laget for 35 minutter siden, klokken 04:20 UTC
Flau vind
Temperatur 5°C
Luftfuktighet 93%
Trykk 1009 hPa
Sikt 10 km eller mer
ingen skyer under 1500 m og ingen bygeskyer

METAR: EFKE 160420Z AUTO 00000KT CAVOK 05/04 Q1009

Tid: 07:55 (04:55 UTC)

Varsel

Denne rapporten ble laget for 8 timer og 21 minutter siden, klokken 20:34 UTC
Varsel gyldig fra 15. klokken 21 UTC til 15. klokken 24 UTC
Vind 5 kt fra Nord
Sikt 10 km eller mer
Brutte skyer i en høyde av 3000 ft
lett regn

TAF: EFKE 152034Z 1521/1524 01005KT 9999 -RA BKN030

Værobservasjoner og værvarsel for over 4000 flyplasser (METAR- og TAF-rapporter).

Tilgjengelige stasjoner er representert av de røde og gule prikkene på kartet.

Hold musepekeren over prikken for å se navnet på stasjonen.

Klikk så for å se værobservasjoner og -varsler.

For å forandre kartet kan du klikke på den grønne knappen med svart kryss for å zoome inn, på den grønne knappen med strek for å zoome ut, eller på de grønne pilene for å se tilstøtende kart.


METAR-TAF: